Time;durP1;ratioP1;P1;durP2;ratioP2;P2;SDS_P1;SDS_P2;PMS_P1;PMS_P2;Temp;Humidity;BMP_temperature;BMP_pressure;BME280_temperature;BME280_humidity;BME280_pressure;Samples;Min_cycle;Max_cycle;Signal;HPM_P1;HPM_P2
2022/07/15 00:00:15;;;;;;;;;5.00;3.25;;;;;20.79;100.00;101778.81;4889994;29;44891;-90
2022/07/15 00:02:41;;;;;;;;;6.00;6.00;;;;;20.73;100.00;101774.84;4888992;29;45445;-90
2022/07/15 00:05:07;;;;;;;;;5.25;4.00;;;;;20.70;100.00;101777.88;4905089;29;46926;-89
2022/07/15 00:07:33;;;;;;;;;9.40;7.40;;;;;20.60;100.00;101779.72;4906892;29;44808;-89
2022/07/15 00:10:14;;;;;;;;;4.60;4.60;;;;;20.61;100.00;101777.88;4892480;29;45353;-89
2022/07/15 00:12:59;;;;;;;;;5.50;5.00;;;;;20.52;100.00;101785.81;4912234;29;44740;-90
2022/07/15 00:15:28;;;;;;;;;2.60;1.60;;;;;20.43;100.00;101783.09;4897119;29;45281;-88
2022/07/15 00:17:54;;;;;;;;;9.00;9.00;;;;;20.35;100.00;101774.81;4900488;29;44747;-89
2022/07/15 00:20:21;;;;;;;;;6.80;4.20;;;;;20.29;100.00;101778.94;4919602;29;44698;-90
2022/07/15 00:22:49;;;;;;;;;7.75;7.50;;;;;20.28;100.00;101779.94;4919573;29;44768;-89
2022/07/15 00:25:16;;;;;;;;;10.00;8.25;;;;;20.30;100.00;101791.44;4901727;29;46882;-88
2022/07/15 00:28:04;;;;;;;;;8.60;8.60;;;;;20.24;100.00;101794.72;4901425;29;44683;-90
2022/07/15 00:30:32;;;;;;;;;11.60;10.60;;;;;20.18;100.00;101787.19;4897976;29;44766;-89
2022/07/15 00:33:02;;;;;;;;;13.00;10.50;;;;;20.13;100.00;101779.50;4899671;29;45022;-90
2022/07/15 00:35:32;;;;;;;;;9.00;7.80;;;;;20.16;100.00;101789.13;4919695;29;45257;-89
2022/07/15 00:37:58;;;;;;;;;5.00;5.00;;;;;20.10;100.00;101793.25;4921077;29;44814;-88
2022/07/15 00:40:24;;;;;;;;;6.20;5.20;;;;;20.07;100.00;101788.16;4924131;29;44665;-90
2022/07/15 00:42:50;;;;;;;;;5.00;5.00;;;;;19.97;100.00;101780.03;4924050;29;44776;-89
2022/07/15 00:45:18;;;;;;;;;2.50;2.50;;;;;19.98;100.00;101788.97;4925757;28;45192;-88
2022/07/15 00:47:48;;;;;;;;;8.20;7.40;;;;;19.97;100.00;101796.22;4924856;29;44737;-88
2022/07/15 00:50:15;;;;;;;;;6.20;6.20;;;;;19.94;100.00;101801.88;4923157;29;44849;-89
2022/07/15 00:52:44;;;;;;;;;9.00;9.00;;;;;19.94;100.00;101799.19;4923359;29;44642;-90
2022/07/15 00:55:11;;;;;;;;;14.75;12.25;;;;;19.95;100.00;101813.53;4907869;29;45137;-89
2022/07/15 00:57:42;;;;;;;;;4.80;4.40;;;;;19.91;100.00;101815.63;4909158;28;44740;-90
2022/07/15 01:00:11;;;;;;;;;6.60;6.60;;;;;19.85;100.00;101809.94;4907461;29;44956;-89
2022/07/15 01:02:38;;;;;;;;;4.00;3.25;;;;;19.74;100.00;101813.59;4922757;29;44835;-89
2022/07/15 01:05:05;;;;;;;;;9.50;7.75;;;;;19.74;100.00;101808.22;4915860;29;45141;-89
2022/07/15 01:07:32;;;;;;;;;16.25;14.50;;;;;19.72;100.00;101807.47;4915737;29;44662;-89
2022/07/15 01:09:58;;;;;;;;;13.60;9.40;;;;;19.67;100.00;101807.88;4918786;29;44754;-89
2022/07/15 01:12:25;;;;;;;;;9.00;7.50;;;;;19.64;100.00;101820.81;4901757;29;44941;-87
2022/07/15 01:14:50;;;;;;;;;6.50;6.50;;;;;19.63;100.00;101817.25;4901624;29;45690;-88
2022/07/15 01:17:16;;;;;;;;;9.50;9.50;;;;;19.62;100.00;101825.47;4916403;29;44743;-88
2022/07/15 01:19:42;;;;;;;;;4.25;2.25;;;;;19.52;100.00;101812.75;4916704;29;44749;-89
2022/07/15 01:22:07;;;;;;;;;13.75;9.75;;;;;19.54;100.00;101823.41;4888031;29;44858;-88
2022/07/15 01:24:35;;;;;;;;;10.50;9.00;;;;;19.50;100.00;101843.53;4920726;29;45149;-89
2022/07/15 01:27:01;;;;;;;;;10.00;7.60;;;;;19.37;100.00;101827.56;4918170;29;44731;-91
2022/07/15 01:32:03;;;;;;;;;7.75;5.75;;;;;19.22;100.00;101832.44;5326082;23;46389;-89
2022/07/15 01:34:28;;;;;;;;;9.40;7.20;;;;;19.15;100.00;101828.59;4928625;28;45276;-88
2022/07/15 01:42:10;;;;;;;;;10.50;7.50;;;;;19.02;100.00;101835.16;5650601;23;45313;-89
2022/07/15 01:44:36;;;;;;;;;14.25;10.25;;;;;19.00;100.00;101851.41;4930633;28;45201;-88
2022/07/15 01:47:01;;;;;;;;;6.75;6.75;;;;;18.95;100.00;101834.78;4930629;28;45239;-90
2022/07/15 01:49:31;;;;;;;;;3.00;3.00;;;;;18.86;100.00;101836.47;4931028;28;45331;-89
2022/07/15 01:51:59;;;;;;;;;11.00;10.25;;;;;18.80;100.00;101847.72;4929451;28;44894;-89
2022/07/15 01:54:26;;;;;;;;;9.25;9.25;;;;;18.73;100.00;101833.94;4927888;28;45971;-89
2022/07/15 01:56:52;;;;;;;;;9.20;8.20;;;;;18.75;100.00;101839.16;4927943;28;45418;-88
2022/07/15 01:59:22;;;;;;;;;3.80;3.80;;;;;18.72;100.00;101834.06;4930759;28;44725;-86
2022/07/15 02:01:48;;;;;;;;;3.75;3.75;;;;;18.63;100.00;101826.72;4925256;28;45193;-89
2022/07/15 02:04:16;;;;;;;;;12.50;10.75;;;;;18.63;100.00;101838.34;4927553;28;45658;-89
2022/07/15 02:06:42;;;;;;;;;1.20;1.20;;;;;18.61;100.00;101829.53;4927701;28;45437;-89
2022/07/15 02:09:08;;;;;;;;;14.25;8.75;;;;;18.54;100.00;101822.97;4926763;28;44767;-89
2022/07/15 02:11:34;;;;;;;;;8.75;8.75;;;;;18.50;100.00;101830.44;4927491;28;44870;-89
2022/07/15 02:14:01;;;;;;;;;12.75;12.75;;;;;18.46;100.00;101836.19;4926231;28;46646;-89
2022/07/15 02:16:29;;;;;;;;;6.50;6.50;;;;;18.43;100.00;101826.56;4926724;28;45171;-89
2022/07/15 02:18:56;;;;;;;;;19.25;15.75;;;;;18.36;100.00;101836.09;4943350;28;44639;-89
2022/07/15 02:21:21;;;;;;;;;8.50;6.50;;;;;18.33;100.00;101830.97;4928262;28;44841;-89
2022/07/15 02:23:47;;;;;;;;;6.25;5.50;;;;;18.34;100.00;101824.63;4933215;28;46734;-89
2022/07/15 02:26:13;;;;;;;;;19.75;14.75;;;;;18.30;100.00;101825.84;5097178;23;44880;-90
2022/07/15 02:28:39;;;;;;;;;5.25;5.25;;;;;18.22;100.00;101829.16;4927389;28;44733;-89
2022/07/15 02:31:05;;;;;;;;;5.25;4.00;;;;;18.19;100.00;101825.88;4909646;28;44889;-90
2022/07/15 02:33:31;;;;;;;;;7.00;7.00;;;;;18.14;100.00;101822.72;4926487;28;46928;-90
2022/07/15 02:35:57;;;;;;;;;7.20;6.40;;;;;18.17;100.00;101822.44;4911165;28;44779;-89
2022/07/15 02:38:22;;;;;;;;;14.00;10.50;;;;;18.17;100.00;101828.66;4909816;29;44708;-90
2022/07/15 02:40:49;;;;;;;;;20.50;14.25;;;;;18.15;100.00;101825.25;4909274;28;44812;-89
2022/07/15 02:43:16;;;;;;;;;9.75;9.25;;;;;18.10;100.00;101832.00;4909522;29;45363;-90
2022/07/15 02:45:43;;;;;;;;;12.75;10.50;;;;;18.03;100.00;101831.63;4893762;29;44869;-90
2022/07/15 02:48:09;;;;;;;;;9.50;8.00;;;;;18.04;100.00;101840.56;4912124;28;44828;-89
2022/07/15 02:50:35;;;;;;;;;9.00;9.00;;;;;18.03;100.00;101828.09;4919342;29;44834;-90
2022/07/15 02:53:04;;;;;;;;;17.25;12.75;;;;;18.01;100.00;101830.06;4917000;28;45094;-89
2022/07/15 02:55:30;;;;;;;;;10.60;7.40;;;;;17.98;100.00;101832.00;4907382;28;44844;-89
2022/07/15 02:57:56;;;;;;;;;9.75;8.25;;;;;17.98;100.00;101828.47;4907606;29;44813;-90
2022/07/15 03:00:22;;;;;;;;;3.75;3.75;;;;;17.97;100.00;101832.97;4913102;28;45233;-88
2022/07/15 03:02:48;;;;;;;;;4.75;4.75;;;;;17.96;100.00;101836.66;4914320;28;44940;-91
2022/07/15 03:05:14;;;;;;;;;14.00;9.60;;;;;17.93;100.00;101842.28;4909360;28;45469;-90
2022/07/15 03:07:40;;;;;;;;;9.25;9.00;;;;;17.90;100.00;101842.53;4905891;29;44726;-89
2022/07/15 03:12:41;;;;;;;;;8.25;5.00;;;;;17.91;100.00;101852.31;4936545;23;44991;-88
2022/07/15 03:15:07;;;;;;;;;6.25;6.25;;;;;17.87;100.00;101849.97;4942954;28;44829;-89
2022/07/15 03:17:33;;;;;;;;;3.00;3.00;;;;;17.86;100.00;101859.88;4944757;28;44824;-89
2022/07/15 03:19:58;;;;;;;;;3.75;3.75;;;;;17.82;100.00;101846.81;4941595;28;45362;-88
2022/07/15 03:22:25;;;;;;;;;3.00;3.00;;;;;17.82;100.00;101861.09;4933656;28;45032;-88
2022/07/15 03:24:50;;;;;;;;;6.40;5.00;;;;;17.81;100.00;101859.41;4927863;28;45299;-88
2022/07/15 03:27:17;;;;;;;;;5.00;5.00;;;;;17.80;100.00;101864.91;4926229;28;44765;-89
2022/07/15 03:29:43;;;;;;;;;6.00;4.75;;;;;17.80;100.00;101859.53;4927451;28;45262;-89
2022/07/15 03:38:56;;;;;;;;;5.40;4.00;;;;;17.77;100.00;101840.94;5098947;23;45232;-89
2022/07/15 03:41:22;;;;;;;;;10.25;7.25;;;;;17.69;100.00;101841.50;4889101;29;45282;-88
2022/07/15 03:43:47;;;;;;;;;4.75;3.00;;;;;17.70;100.00;101836.03;4906255;29;46086;-88
2022/07/15 03:46:16;;;;;;;;;12.25;8.50;;;;;17.69;100.00;101837.00;4906074;29;45440;-88
2022/07/15 03:48:42;;;;;;;;;16.75;16.75;;;;;17.64;100.00;101835.66;4905906;29;45308;-89
2022/07/15 03:51:07;;;;;;;;;9.50;8.75;;;;;17.64;100.00;101833.81;4905512;29;44769;-90
2022/07/15 03:53:33;;;;;;;;;6.25;6.25;;;;;17.63;100.00;101840.16;4894119;29;46566;-88
2022/07/15 03:55:58;;;;;;;;;6.50;6.25;;;;;17.64;100.00;101838.34;4912673;29;44734;-88
2022/07/15 03:58:24;;;;;;;;;6.25;6.25;;;;;17.60;100.00;101835.06;4915170;29;45182;-89
2022/07/15 04:00:49;;;;;;;;;11.50;8.25;;;;;17.63;100.00;101856.28;4916032;29;44896;-89
2022/07/15 04:03:17;;;;;;;;;1.00;1.00;;;;;17.57;100.00;101847.88;4911017;28;45302;-89
2022/07/15 04:05:43;;;;;;;;;6.40;5.00;;;;;17.52;100.00;101852.75;4909814;28;44708;-88
2022/07/15 04:08:09;;;;;;;;;6.75;6.75;;;;;17.51;100.00;101853.72;4925567;28;45285;-89
2022/07/15 04:10:35;;;;;;;;;9.50;8.00;;;;;17.50;100.00;101854.69;4922859;28;44821;-89
2022/07/15 04:13:01;;;;;;;;;11.00;9.75;;;;;17.48;100.00;101852.97;4907171;28;45167;-90
2022/07/15 04:15:28;;;;;;;;;13.75;13.50;;;;;17.50;100.00;101857.38;4923463;28;44873;-89
2022/07/15 04:17:53;;;;;;;;;11.75;10.25;;;;;17.50;100.00;101863.59;4923274;28;44880;-89
2022/07/15 04:20:21;;;;;;;;;3.25;3.25;;;;;17.45;100.00;101858.63;4921772;28;44984;-89
2022/07/15 04:22:47;;;;;;;;;13.50;13.50;;;;;17.47;100.00;101874.59;4920717;28;45249;-89
2022/07/15 04:25:16;;;;;;;;;11.75;9.25;;;;;17.53;100.00;101863.38;4908008;28;44656;-90
2022/07/15 04:27:43;;;;;;;;;7.50;4.25;;;;;17.58;100.00;101871.06;4925051;28;44877;-88
2022/07/15 04:30:09;;;;;;;;;8.75;7.50;;;;;17.56;100.00;101860.44;4924949;28;45548;-88
2022/07/15 04:32:36;;;;;;;;;9.75;7.50;;;;;17.65;100.00;101862.41;4924236;28;45523;-89
2022/07/15 04:35:02;;;;;;;;;7.80;5.80;;;;;17.70;100.00;101867.44;4927569;28;44616;-89
2022/07/15 04:37:28;;;;;;;;;8.25;8.25;;;;;17.77;100.00;101857.94;4927756;28;44623;-89
2022/07/15 04:39:54;;;;;;;;;8.00;6.75;;;;;17.90;100.00;101869.41;4931178;28;44972;-88
2022/07/15 04:42:21;;;;;;;;;6.25;4.00;;;;;17.96;100.00;101874.31;4911924;28;47273;-89
2022/07/15 04:44:47;;;;;;;;;2.80;2.80;;;;;17.93;100.00;101871.84;4944346;28;45332;-89
2022/07/15 04:47:13;;;;;;;;;4.00;4.00;;;;;17.96;100.00;101876.13;4953255;28;45237;-87
2022/07/15 04:57:33;;;;;;;;;16.50;9.75;;;;;18.15;100.00;101871.00;4738682;26;46141;-90
2022/07/15 04:59:58;;;;;;;;;12.50;12.50;;;;;18.16;100.00;101879.91;4894243;29;44893;-90
2022/07/15 05:02:24;;;;;;;;;16.50;13.75;;;;;18.25;100.00;101871.09;4908228;29;45362;-90
2022/07/15 05:04:49;;;;;;;;;3.00;3.00;;;;;18.18;100.00;101880.63;4890987;29;44684;-89
2022/07/15 05:07:15;;;;;;;;;10.25;6.25;;;;;18.16;100.00;101879.91;4908802;29;44671;-90
2022/07/15 05:09:42;;;;;;;;;9.50;9.50;;;;;18.13;100.00;101875.66;4892256;29;44833;-91
2022/07/15 05:12:07;;;;;;;;;5.60;5.60;;;;;18.11;100.00;101901.78;4907310;29;45694;-91
2022/07/15 05:14:41;;;;;;;;;5.25;4.00;;;;;18.23;100.00;101911.59;4893053;29;44851;-94
2022/07/15 05:20:02;;;;;;;;;8.25;6.75;;;;;18.31;100.00;101891.25;4923365;28;46022;-89
2022/07/15 05:22:28;;;;;;;;;6.80;6.00;;;;;18.24;100.00;101896.28;4924102;28;47361;-90
2022/07/15 05:24:53;;;;;;;;;7.25;4.00;;;;;18.18;100.00;101889.59;4924085;28;44677;-87
2022/07/15 05:27:18;;;;;;;;;9.00;9.00;;;;;18.26;100.00;101893.47;4926304;28;45223;-90
2022/07/15 05:29:44;;;;;;;;;7.50;7.50;;;;;18.38;100.00;101897.88;4928627;28;44785;-89
2022/07/15 05:32:10;;;;;;;;;4.25;2.00;;;;;18.62;100.00;101903.94;4938112;28;45020;-88
2022/07/15 05:34:36;;;;;;;;;6.75;6.75;;;;;18.74;100.00;101900.25;4944441;28;44697;-88
2022/07/15 05:37:01;;;;;;;;;7.50;5.50;;;;;18.91;100.00;101900.69;4944381;28;44808;-88
2022/07/15 05:39:27;;;;;;;;;15.50;11.25;;;;;19.06;100.00;101915.56;4945756;28;44912;-88
2022/07/15 05:41:52;;;;;;;;;5.25;5.25;;;;;19.10;100.00;101918.84;4934958;28;46741;-85
2022/07/15 05:44:19;;;;;;;;;9.00;9.00;;;;;19.32;100.00;101921.44;4917468;28;44994;-88
2022/07/15 05:46:45;;;;;;;;;6.40;6.20;;;;;19.38;100.00;101910.13;4905475;28;44749;-88
2022/07/15 05:49:12;;;;;;;;;5.00;4.00;;;;;19.38;100.00;101909.28;4903659;29;45366;-88
2022/07/15 05:51:41;;;;;;;;;4.40;4.40;;;;;19.34;100.00;101913.19;4903535;29;46856;-88
2022/07/15 05:54:06;;;;;;;;;5.60;5.60;;;;;19.29;100.00;101920.81;4905653;29;44825;-88
2022/07/15 05:56:32;;;;;;;;;7.25;7.25;;;;;19.40;100.00;101912.69;4905735;29;44650;-88
2022/07/15 05:59:00;;;;;;;;;8.00;7.50;;;;;19.55;100.00;101915.91;4905035;29;45246;-89
2022/07/15 06:01:26;;;;;;;;;6.60;6.00;;;;;19.53;100.00;101921.41;4904868;28;46685;-89
2022/07/15 06:03:52;;;;;;;;;6.50;5.00;;;;;19.56;100.00;101926.56;4906324;29;44781;-88
2022/07/15 06:06:18;;;;;;;;;5.25;5.25;;;;;19.59;100.00;101934.41;4888609;29;44778;-88
2022/07/15 06:08:44;;;;;;;;;9.75;7.25;;;;;19.63;100.00;101932.31;4903994;29;45274;-87
2022/07/15 06:11:11;;;;;;;;;7.50;5.50;;;;;19.56;100.00;101923.88;4906222;28;45145;-87
2022/07/15 06:13:38;;;;;;;;;3.00;3.00;;;;;19.64;100.00;101928.66;4907361;29;44649;-89
2022/07/15 06:16:04;;;;;;;;;6.80;5.60;;;;;19.81;100.00;101927.16;4908132;29;44892;-88
2022/07/15 06:18:31;;;;;;;;;4.75;4.75;;;;;19.99;100.00;101929.09;4907208;28;45249;-88
2022/07/15 06:20:57;;;;;;;;;11.25;9.25;;;;;19.97;100.00;101922.16;4910421;29;45049;-86
2022/07/15 06:23:25;;;;;;;;;7.75;5.50;;;;;20.12;100.00;101928.03;4909924;29;44853;-85
2022/07/15 06:25:50;;;;;;;;;7.80;7.80;;;;;20.15;100.00;101925.91;4909896;29;45412;-85
2022/07/15 06:28:20;;;;;;;;;8.75;7.50;;;;;20.50;100.00;101927.31;4910778;28;44904;-89
2022/07/15 06:30:45;;;;;;;;;4.00;4.00;;;;;20.71;100.00;101928.09;4909787;29;47245;-89
2022/07/15 06:33:12;;;;;;;;;0.00;0.00;;;;;20.87;100.00;101930.25;4908568;29;44732;-89
2022/07/15 06:35:37;;;;;;;;;7.20;5.60;;;;;20.98;100.00;101929.25;4904869;29;44826;-89
2022/07/15 06:38:03;;;;;;;;;3.50;3.00;;;;;21.00;100.00;101928.13;4905670;29;44867;-87
2022/07/15 06:40:29;;;;;;;;;3.50;3.50;;;;;20.95;100.00;101943.06;4906362;28;45064;-88
2022/07/15 06:42:54;;;;;;;;;3.25;3.25;;;;;20.81;100.00;101943.47;4910630;28;44788;-88
2022/07/15 06:45:20;;;;;;;;;6.00;3.25;;;;;20.85;100.00;101937.66;4912671;28;45269;-89
2022/07/15 06:47:50;;;;;;;;;7.00;6.00;;;;;20.93;100.00;101943.19;4913878;29;44843;-88
2022/07/15 06:50:16;;;;;;;;;4.40;4.40;;;;;20.95;100.00;101946.63;4909126;29;45250;-89
2022/07/15 06:52:42;;;;;;;;;6.00;4.50;;;;;21.19;100.00;101948.06;4916145;29;44798;-88
2022/07/15 06:55:08;;;;;;;;;6.00;6.00;;;;;21.29;100.00;101947.03;4925932;29;44722;-88
2022/07/15 06:57:33;;;;;;;;;6.25;5.00;;;;;21.45;100.00;101948.34;4921078;28;44932;-88
2022/07/15 07:00:04;;;;;;;;;6.00;4.50;;;;;21.67;100.00;101942.63;4910495;28;45325;-89
2022/07/15 07:05:05;;;;;;;;;5.60;4.80;;;;;22.08;100.00;101940.50;5006264;23;44979;-90
2022/07/15 07:07:31;;;;;;;;;5.00;5.00;;;;;22.38;100.00;101941.25;4890612;29;44961;-91
2022/07/15 07:09:57;;;;;;;;;6.75;5.25;;;;;22.47;100.00;101941.19;4890048;29;45371;-90
2022/07/15 07:12:27;;;;;;;;;8.75;6.00;;;;;22.57;100.00;101938.44;4908407;29;45207;-91
2022/07/15 07:14:53;;;;;;;;;5.20;5.20;;;;;22.77;100.00;101941.88;4909446;29;44760;-91
2022/07/15 07:17:19;;;;;;;;;4.00;4.00;;;;;22.81;100.00;101944.13;4908391;29;44916;-91
2022/07/15 07:19:44;;;;;;;;;6.75;5.25;;;;;22.89;99.05;101942.56;4908922;29;45035;-90
2022/07/15 07:22:10;;;;;;;;;6.50;4.25;;;;;23.04;96.78;101947.28;4911213;29;44795;-91
2022/07/15 07:24:35;;;;;;;;;3.25;3.25;;;;;23.25;95.29;101937.97;4909383;29;44690;-90
2022/07/15 07:29:36;;;;;;;;;2.40;2.40;;;;;22.83;90.89;101944.84;5250284;23;46095;-87
2022/07/15 07:32:02;;;;;;;;;4.50;4.50;;;;;22.82;95.71;101937.72;4886004;29;44862;-87
2022/07/15 07:34:29;;;;;;;;;5.80;4.00;;;;;23.04;96.98;101932.88;4902726;29;45405;-88
2022/07/15 07:36:55;;;;;;;;;3.20;3.20;;;;;22.81;95.72;101938.69;4901201;29;45346;-87
2022/07/15 07:39:20;;;;;;;;;4.00;4.00;;;;;22.62;96.12;101929.84;4902950;29;44904;-87
2022/07/15 07:41:49;;;;;;;;;6.00;6.00;;;;;22.54;93.19;101930.63;4908136;29;44774;-87
2022/07/15 07:44:14;;;;;;;;;6.20;5.20;;;;;22.70;92.58;101932.66;4918173;28;45454;-86
2022/07/15 07:46:40;;;;;;;;;3.50;3.50;;;;;22.72;89.60;101931.50;4903501;29;44915;-87
2022/07/15 07:49:05;;;;;;;;;3.50;3.25;;;;;22.93;88.78;101936.66;4900004;29;45482;-86
2022/07/15 07:51:31;;;;;;;;;2.75;2.75;;;;;22.85;86.79;101939.25;4916122;29;44806;-87
2022/07/15 07:53:56;;;;;;;;;3.50;3.50;;;;;22.67;87.45;101939.22;4894707;29;44837;-87
2022/07/15 07:56:22;;;;;;;;;3.25;3.25;;;;;22.25;84.83;101930.78;4888039;29;44974;-88
2022/07/15 07:58:48;;;;;;;;;2.25;2.25;;;;;22.19;87.62;101925.94;4903667;29;45164;-87
2022/07/15 08:01:13;;;;;;;;;7.75;4.00;;;;;22.23;84.35;101928.22;4886203;29;45283;-88
2022/07/15 08:06:14;;;;;;;;;2.40;2.40;;;;;22.26;84.65;101933.34;4918227;28;44780;-89
2022/07/15 08:08:40;;;;;;;;;2.50;1.00;;;;;22.18;84.79;101910.72;4943699;28;46815;-88
2022/07/15 08:11:06;;;;;;;;;4.00;2.75;;;;;22.12;86.30;101922.16;4929151;28;44755;-89
2022/07/15 08:13:32;;;;;;;;;5.00;2.00;;;;;22.06;86.05;101919.00;4928839;28;44769;-88
2022/07/15 08:15:59;;;;;;;;;3.50;3.00;;;;;22.20;85.35;101916.84;4930711;28;44861;-88
2022/07/15 08:18:25;;;;;;;;;3.80;2.40;;;;;22.41;85.38;101916.59;4930523;28;45393;-88
2022/07/15 08:20:51;;;;;;;;;2.40;1.60;;;;;22.39;81.80;101913.19;4928890;28;44788;-88
2022/07/15 08:25:52;;;;;;;;;4.00;4.00;;;;;22.27;81.01;101931.47;5067925;23;46183;-90
2022/07/15 08:28:20;;;;;;;;;4.00;2.50;;;;;22.14;81.03;101915.56;4885199;29;45185;-89
2022/07/15 08:30:46;;;;;;;;;2.40;2.40;;;;;22.12;83.36;101909.47;4918444;29;44586;-90
2022/07/15 08:33:12;;;;;;;;;3.00;3.00;;;;;22.06;86.20;101913.59;4908540;29;44618;-90
2022/07/15 08:35:37;;;;;;;;;2.25;2.00;;;;;22.06;84.08;101916.31;4908042;29;44857;-89
2022/07/15 08:38:07;;;;;;;;;1.25;1.25;;;;;22.07;85.29;101922.56;4911330;29;45331;-89
2022/07/15 08:40:37;;;;;;;;;5.00;3.40;;;;;22.29;85.81;101911.38;4894830;29;44789;-89
2022/07/15 08:43:10;;;;;;;;;2.00;2.00;;;;;22.25;84.32;101920.81;4911773;28;45265;-89
2022/07/15 08:45:37;;;;;;;;;1.40;1.40;;;;;22.34;84.64;101919.06;4911168;29;44754;-90
2022/07/15 08:50:41;;;;;;;;;3.00;3.00;;;;;22.45;85.52;101902.59;5318833;23;45775;-88
2022/07/15 08:53:06;;;;;;;;;5.40;4.00;;;;;22.55;84.90;101903.38;4910225;28;44764;-89
2022/07/15 08:55:32;;;;;;;;;3.00;3.00;;;;;22.73;85.96;101898.00;4931102;28;44701;-88
2022/07/15 08:57:58;;;;;;;;;3.00;3.00;;;;;22.86;82.99;101886.75;4893031;28;47090;-88
2022/07/15 09:00:28;;;;;;;;;2.00;2.00;;;;;22.89;80.47;101893.78;4925667;28;44699;-88
2022/07/15 09:02:56;;;;;;;;;3.60;2.40;;;;;22.75;77.04;101903.25;4924235;28;44841;-89
2022/07/15 09:05:28;;;;;;;;;3.00;1.00;;;;;22.75;77.57;101905.97;4928546;28;45250;-87
2022/07/15 09:08:13;;;;;;;;;2.00;2.00;;;;;22.73;76.95;101905.28;4910691;28;45384;-89
2022/07/15 09:11:01;;;;;;;;;0.00;0.00;;;;;22.69;74.56;101906.59;4924385;28;44792;-88
2022/07/15 09:13:36;;;;;;;;;4.20;3.00;;;;;22.53;75.66;101885.56;4907288;28;45395;-87
2022/07/15 09:16:10;;;;;;;;;3.40;2.60;;;;;22.58;75.99;101900.38;4922140;28;45399;-88
2022/07/15 09:18:39;;;;;;;;;4.40;3.80;;;;;22.67;72.79;101905.88;4906777;28;45348;-89
2022/07/15 09:21:14;;;;;;;;;1.20;1.00;;;;;22.53;71.33;101897.28;4923991;28;45269;-89
2022/07/15 09:23:40;;;;;;;;;1.00;1.00;;;;;22.70;69.54;101903.72;4922496;28;44748;-89
2022/07/15 09:26:26;;;;;;;;;3.60;2.80;;;;;22.84;72.24;101899.63;4922453;28;44838;-90
2022/07/15 09:28:53;;;;;;;;;2.20;2.20;;;;;23.03;70.87;101902.19;4923510;28;45251;-89
2022/07/15 09:34:17;;;;;;;;;2.80;2.60;;;;;23.12;68.48;101896.88;4921644;28;44771;-89
2022/07/15 09:36:50;;;;;;;;;3.40;3.00;;;;;23.09;63.82;101892.59;4920776;28;44699;-88
2022/07/15 09:39:17;;;;;;;;;2.20;2.20;;;;;23.18;69.30;101894.38;4920169;28;45495;-89
2022/07/15 09:41:44;;;;;;;;;4.00;2.80;;;;;23.20;68.00;101891.50;4904428;28;44724;-89
2022/07/15 09:44:17;;;;;;;;;4.00;2.00;;;;;23.25;67.10;101881.88;4909154;28;44723;-88
2022/07/15 09:46:53;;;;;;;;;1.20;1.20;;;;;23.32;64.38;101891.09;4905769;29;45596;-89
2022/07/15 09:49:21;;;;;;;;;2.80;1.80;;;;;23.55;64.14;101905.00;4893034;28;44982;-88
2022/07/15 09:51:50;;;;;;;;;2.00;1.80;;;;;23.33;59.25;101906.34;4892643;29;44987;-89
2022/07/15 09:54:17;;;;;;;;;3.00;3.00;;;;;23.35;59.31;101903.47;4913301;29;44720;-88
2022/07/15 09:56:45;;;;;;;;;1.20;1.20;;;;;23.39;58.62;101885.03;4925583;28;44710;-88
2022/07/15 09:59:11;;;;;;;;;1.80;1.00;;;;;23.19;54.74;101896.06;4923687;29;45175;-89
2022/07/15 10:01:36;;;;;;;;;2.00;2.00;;;;;23.24;59.05;101880.16;4897963;29;44793;-89
2022/07/15 10:04:04;;;;;;;;;2.00;2.00;;;;;23.40;55.63;101898.41;4904642;29;45206;-88
2022/07/15 10:06:32;;;;;;;;;3.00;1.80;;;;;23.47;57.06;101893.22;4912288;29;45380;-88
2022/07/15 10:08:58;;;;;;;;;1.40;1.00;;;;;23.52;55.72;101880.88;4889198;29;46628;-88
2022/07/15 10:11:24;;;;;;;;;0.60;0.60;;;;;23.59;54.55;101876.53;4905262;29;44841;-88
2022/07/15 10:13:52;;;;;;;;;3.25;3.00;;;;;23.54;53.42;101899.72;4904690;29;44775;-88
2022/07/15 10:16:43;;;;;;;;;0.40;0.40;;;;;23.59;53.31;101890.09;4904556;29;44936;-89
2022/07/15 10:19:37;;;;;;;;;0.00;0.00;;;;;23.60;54.11;101878.25;4892715;29;45489;-88
2022/07/15 10:25:21;;;;;;;;;0.00;0.00;;;;;23.81;49.92;101877.88;5439991;23;46356;-88
2022/07/15 10:27:53;;;;;;;;;1.40;1.40;;;;;23.75;50.51;101886.66;4925031;28;44812;-88
2022/07/15 10:30:21;;;;;;;;;1.60;1.20;;;;;23.80;50.10;101887.03;4923113;28;44965;-88
2022/07/15 10:33:07;;;;;;;;;0.80;0.20;;;;;23.69;50.66;101878.28;4922627;28;44794;-87
2022/07/15 10:35:33;;;;;;;;;0.40;0.40;;;;;23.82;50.18;101884.16;4924372;28;44748;-87
2022/07/15 10:38:26;;;;;;;;;0.40;0.00;;;;;23.89;48.09;101863.50;4923586;28;45015;-88
2022/07/15 10:41:21;;;;;;;;;2.60;2.60;;;;;24.15;49.76;101865.31;4925648;28;45233;-88
2022/07/15 10:43:48;;;;;;;;;1.80;1.80;;;;;24.25;47.09;101863.28;4925541;28;44768;-88
2022/07/15 10:46:16;;;;;;;;;3.00;3.00;;;;;24.41;46.08;101865.22;4925896;28;44797;-88
2022/07/15 10:48:43;;;;;;;;;1.00;1.00;;;;;24.46;46.27;101877.31;4926719;28;44851;-88
2022/07/15 10:51:08;;;;;;;;;3.20;3.20;;;;;24.39;47.26;101853.69;4947348;28;45210;-88
2022/07/15 10:53:43;;;;;;;;;11.00;6.25;;;;;24.65;48.12;101857.13;4949301;28;44729;-87
2022/07/15 10:56:37;;;;;;;;;3.40;3.40;;;;;24.79;45.47;101847.47;4949318;28;44671;-88
2022/07/15 10:59:21;;;;;;;;;2.00;2.00;;;;;24.77;44.45;101844.94;4946425;28;44943;-88
2022/07/15 11:02:14;;;;;;;;;6.00;6.00;;;;;24.91;43.61;101848.00;4948425;28;46676;-88
2022/07/15 11:04:42;;;;;;;;;3.20;1.40;;;;;25.09;42.90;101857.72;4947815;28;45433;-88
2022/07/15 11:07:07;;;;;;;;;1.00;1.00;;;;;25.20;44.77;101845.66;4950636;28;44643;-89
2022/07/15 11:09:52;;;;;;;;;1.00;1.00;;;;;25.14;42.00;101854.47;4950038;28;44739;-87
2022/07/15 11:12:44;;;;;;;;;1.80;1.00;;;;;25.17;42.55;101851.41;4949737;28;45154;-88
2022/07/15 11:15:16;;;;;;;;;1.60;1.60;;;;;25.19;42.81;101843.94;4943299;28;45328;-88
2022/07/15 11:17:45;;;;;;;;;1.20;1.20;;;;;25.16;41.72;101852.44;4942661;28;44810;-89
2022/07/15 11:20:15;;;;;;;;;2.60;1.00;;;;;25.04;41.29;101859.19;4945680;28;44771;-88
2022/07/15 11:22:47;;;;;;;;;1.00;1.00;;;;;24.56;42.09;101842.72;4944893;28;45222;-86
2022/07/15 11:25:18;;;;;;;;;0.40;0.40;;;;;24.70;42.94;101837.59;4944711;28;45839;-86
2022/07/15 11:28:02;;;;;;;;;1.20;0.40;;;;;24.96;43.34;101830.16;4941372;28;44779;-87
2022/07/15 11:30:56;;;;;;;;;0.00;0.00;;;;;25.07;39.79;101824.41;4940730;28;44935;-88
2022/07/15 11:33:27;;;;;;;;;1.00;1.00;;;;;25.28;41.44;101832.00;4940771;28;45326;-89
2022/07/15 11:35:58;;;;;;;;;0.20;0.20;;;;;25.44;41.77;101833.88;4942714;28;44657;-88
2022/07/15 11:38:30;;;;;;;;;0.60;0.60;;;;;25.37;40.93;101835.56;4942555;28;44619;-86
2022/07/15 11:46:31;;;;;;;;;1.60;1.60;;;;;25.43;38.34;101825.88;4948534;28;45255;-89
2022/07/15 11:48:58;;;;;;;;;1.00;1.00;;;;;25.45;39.36;101840.16;4944088;28;44803;-89
2022/07/15 11:51:29;;;;;;;;;0.60;0.00;;;;;25.49;41.64;101820.59;4945635;28;44906;-88
2022/07/15 11:53:56;;;;;;;;;1.20;0.40;;;;;25.39;39.91;101825.38;4950025;28;45285;-86
2022/07/15 11:56:22;;;;;;;;;1.20;1.20;;;;;25.51;40.54;101820.41;4944160;28;44622;-88
2022/07/15 11:58:54;;;;;;;;;3.50;2.25;;;;;25.48;39.79;101808.03;4942920;28;45225;-89
2022/07/15 12:01:22;;;;;;;;;0.60;0.60;;;;;25.52;40.85;101820.22;4943812;28;44796;-86
2022/07/15 12:03:51;;;;;;;;;0.40;0.40;;;;;25.56;40.48;101818.00;4942984;28;45382;-86
2022/07/15 12:06:23;;;;;;;;;1.00;1.00;;;;;25.57;39.51;101822.44;4940125;28;44894;-88
2022/07/15 12:08:54;;;;;;;;;5.20;3.40;;;;;25.73;40.43;101819.66;4939861;28;44760;-89
2022/07/15 12:11:30;;;;;;;;;0.80;0.80;;;;;25.82;37.97;101810.47;4941713;28;44794;-88
2022/07/15 12:14:00;;;;;;;;;1.00;1.00;;;;;25.85;36.97;101818.28;4940902;28;45240;-88
2022/07/15 12:16:31;;;;;;;;;1.00;1.00;;;;;26.11;37.40;101809.84;4939741;28;44676;-89